Flight Track Log - Related Links

Times and Time Zones

All times are in EDT time to prevent confusion due to time zone crossing. See the SWA655 flight status page for this flight to view local times or setup timezone preferences in your user account.

Time Position Orientation Groundspeed Altitude Reporting Facility
EDT Latitude Longitude Course Direction KTS MPH feet Rate Location/Type
Mon 03:05:39 PM 29.5764 -98.4550 351° North 197 227 2,600  Level Houston Center
Mon 03:06:09 PM 29.5975 -98.4636 340° North 206 237 3,700 2,361 Climbing Houston Center
Mon 03:06:40 PM 29.6250 -98.5022 309° West 265 305 5,000 1,258 Climbing Houston Center
Mon 03:07:11 PM 29.6481 -98.5411 304° West 265 305 5,000 2,106 Level Houston Center
Mon 03:08:14 PM 29.7008 -98.6081 312° West 281 323 8,300 2,832 Climbing Houston Center
Mon 03:09:16 PM 29.7669 -98.6769 318° Northwest 299 344 10,900 2,613 Climbing Houston Center
Mon 03:10:18 PM 29.8381 -98.7508 318° Northwest 341 392 13,700 2,710 Climbing Houston Center
Mon 03:11:20 PM 29.9139 -98.8392 315° West 360 414 16,500 2,468 Climbing Houston Center
Mon 03:12:22 PM 29.9792 -98.9342 308° West 375 432 18,800 2,371 Climbing Houston Center
Mon 03:13:24 PM 30.0522 -99.0381 309° West 385 443 21,400 1,984 Climbing Houston Center
Mon 03:14:26 PM 30.1128 -99.1336 306° West 404 465 22,900 1,694 Climbing Houston Center
Mon 03:15:28 PM 30.1506 -99.2617 289° West 423 487 24,900 1,790 Climbing Houston Center
Mon 03:16:30 PM 30.1853 -99.3906 287° West 422 486 26,600 1,680 Climbing Houston Center
Mon 03:17:33 PM 30.2306 -99.5514 288° West 436 502 28,400 1,392 Climbing Houston Center
Mon 03:18:35 PM 30.2675 -99.6881 287° West 446 513 29,500 1,161 Climbing Houston Center
Mon 03:19:37 PM 30.3061 -99.8275 288° West 456 525 30,800 1,403 Climbing Houston Center
Mon 03:20:39 PM 30.3433 -99.9658 287° West 455 524 32,400 1,403 Climbing Houston Center
Mon 03:21:41 PM 30.3789 -100.0994 287° West 427 491 33,700 1,258 Climbing Houston Center
Mon 03:22:43 PM 30.4231 -100.2611 288° West 441 507 35,000 1,113 Climbing Houston Center
Mon 03:23:45 PM 30.4586 -100.3978 287° West 446 513 36,000 484 Climbing Houston Center
Mon 03:24:47 PM 30.4944 -100.5369 287° West 450 518 36,000 -48 Level Houston Center
Mon 03:25:49 PM 30.5311 -100.6767 287° West 456 525 35,900  Descending Houston Center
Mon 03:26:51 PM 30.5661 -100.8150 286° West 455 524 36,000 48 Climbing Houston Center
Mon 03:27:53 PM 30.6094 -100.9822 287° West 456 525 36,000  Level Houston Center
Mon 03:28:56 PM 30.6450 -101.1208 287° West 449 517 36,000  Level Houston Center
Mon 03:29:58 PM 30.6822 -101.2608 287° West 458 527 36,000  Level Houston Center
Mon 03:31:00 PM 30.7178 -101.4008 286° West 456 525 36,000  Level Houston Center
Mon 03:32:02 PM 30.7536 -101.5414 287° West 458 527 36,000  Level Houston Center
Mon 03:33:04 PM 30.7683 -101.7136 276° West 458 527 36,000  Level Houston Center
Mon 03:34:06 PM 30.7825 -101.8594 276° West 454 522 36,000  Level Houston Center
Mon 03:35:08 PM 30.7942 -102.0047 275° West 449 517 36,000  Level Houston Center
Mon 03:36:10 PM 30.8086 -102.1489 277° West 446 513 36,000  Level Houston Center
Mon 03:37:23 PM 30.8250 -102.3258 276° West 453 521 36,000  Level Albuquerque Center
Mon 03:38:14 PM 30.8358 -102.4447 276° West 456 525 36,000  Level Houston Center
Mon 03:39:16 PM 30.8728 -102.6161 284° West 457 526 36,000  Level Houston Center
Mon 03:40:18 PM 30.9092 -102.7561 287° West 451 519 36,000  Level Houston Center
Mon 03:41:20 PM 30.9425 -102.8978 285° West 452 520 36,000 -48 Level Houston Center
Mon 03:42:22 PM 30.9750 -103.0369 285° West 447 514 35,900  Descending Houston Center
Mon 03:43:24 PM 31.0069 -103.1739 285° West 440 506 36,000 48 Climbing Houston Center
Mon 03:44:26 PM 31.0386 -103.3117 285° West 440 506 36,000  Level Houston Center
Mon 03:45:36 PM 31.0767 -103.4758 285° West 442 509 36,000 -227 Level Albuquerque Center
Mon 03:46:38 PM 31.1078 -103.6131 285° West 440 506 35,500 -732 Descending Albuquerque Center
Mon 03:47:39 PM 31.1389 -103.7517 285° West 442 509 34,500 -829 Descending Albuquerque Center
Mon 03:48:41 PM 31.1761 -103.9156 285° West 449 517 33,800 -829 Descending Albuquerque Center
Mon 03:49:42 PM 31.2081 -104.0575 285° West 453 521 32,800 -927 Descending Albuquerque Center
Mon 03:50:44 PM 31.2400 -104.1975 285° West 451 519 31,900 -387 Descending Albuquerque Center
Mon 03:51:46 PM 31.2728 -104.3372 285° West 449 517 32,000 49 Climbing Albuquerque Center
Mon 03:52:47 PM 31.3036 -104.4781 284° West 451 519 32,000 -49 Level Albuquerque Center
Mon 03:53:49 PM 31.3344 -104.6194 284° West 453 521 31,900 -1,024 Descending Albuquerque Center
Mon 03:54:50 PM 31.3719 -104.7867 285° West 448 516 29,900 -2,195 Descending Albuquerque Center
Mon 03:55:52 PM 31.4014 -104.9197 285° West 435 501 27,400 -2,516 Descending Albuquerque Center
Mon 03:56:54 PM 31.4286 -105.0486 284° West 418 481 24,700 -2,341 Descending Albuquerque Center
Mon 03:57:55 PM 31.4561 -105.1761 284° West 411 473 22,600 -2,000 Descending Albuquerque Center
Mon 03:58:57 PM 31.4833 -105.2975 285° West 395 455 20,600 -2,000 Descending Albuquerque Center
Mon 03:59:49 PM 31.5053 -105.4242 282° West 381 438 18,800 -1,974 Descending Albuquerque Center
Mon 04:00:13 PM 31.5164 -105.4711 286° West 383 441 18,100 -2,028 Descending Albuquerque Center
Mon 04:01:00 PM 31.5392 -105.5669 286° West 392 451 16,400 -2,257 Descending Albuquerque Center
Mon 04:02:02 PM 31.5653 -105.6875 284° West 385 443 14,000 -1,839 Descending Albuquerque Center
Mon 04:03:04 PM 31.6042 -105.7917 294° West 352 405 12,600 -1,367 Descending Albuquerque Center
Mon 04:03:21 PM 31.6272 -105.8222 312° West 325 374 12,200 -1,065 Descending Albuquerque Center
Mon 04:04:06 PM 31.6625 -105.8689 312° West 317 365 11,500 -1,180 Descending Albuquerque Center
Mon 04:04:22 PM 31.6819 -105.8983 308° West 299 344 11,000 -1,342 Descending Albuquerque Center
Mon 04:05:22 PM 31.7361 -105.9719 311° West 299 344 9,800 -1,065 Descending Albuquerque Center
Mon 04:06:09 PM 31.7697 -106.0197 310° West 301 346 9,100 -1,266 Descending Albuquerque Center
Mon 04:07:11 PM 31.7975 -106.1106 290° West 293 337 7,500 -1,024 Descending Albuquerque Center
Mon 04:08:12 PM 31.8322 -106.2083 293° West 263 303 7,000 -488 Descending Albuquerque Center
Mon 04:09:14 PM 31.8656 -106.2606 307° West 194 223 6,500 -823 Descending Albuquerque Center
Mon 04:10:16 PM 31.8628 -106.3122 266° West 166 191 5,300 -1,016 Descending Albuquerque Center
Mon 04:11:18 PM 31.8333 -106.3544 231° Southwest 156 180 4,400 -634 Descending Albuquerque Center
Mon 04:12:19 PM 31.8100 -106.3856 229° Southwest 151 174 4,000 -393 Descending Albuquerque Center
Mon 04:14:00 PM 31.8072 -106.3764 90° East  Level Estimated
Mon 04:21:00 PM 31.8072 -106.3764 90° East  Level Estimated
Mon 04:22:00 PM 31.8072 -106.3764 90° East  Level Estimated
Mon 04:23:00 PM 31.8072 -106.3764 90° East  Level Estimated

Login

Don't have an account? Register now (free) for customized features, flight alerts, and more!